sensor_id;sensor_type;location;lat;lon;timestamp;pressure;altitude;pressure_sealevel;temperature;humidity
31403;BME280;18039;52.188;21.024;2023-02-03T00:00:28;78060.81;;;-141.45;99.09
31403;BME280;18039;52.188;21.024;2023-02-03T00:03:18;78077.06;;;-141.45;99.00
31403;BME280;18039;52.188;21.024;2023-02-03T00:05:45;78077.06;;;-141.45;98.54
31403;BME280;18039;52.188;21.024;2023-02-03T00:08:13;78073.00;;;-141.45;98.66
31403;BME280;18039;52.188;21.024;2023-02-03T00:10:42;78068.94;;;-141.45;97.41
31403;BME280;18039;52.188;21.024;2023-02-03T00:13:09;78097.34;;;-141.45;97.29
31403;BME280;18039;52.188;21.024;2023-02-03T00:15:36;78101.38;;;-141.45;97.41
31403;BME280;18039;52.188;21.024;2023-02-03T00:18:04;78079.09;;;-141.45;97.38
31403;BME280;18039;52.188;21.024;2023-02-03T00:20:31;78101.38;;;-141.45;97.17
31403;BME280;18039;52.188;21.024;2023-02-03T00:23:07;78115.59;;;-141.45;96.93
31403;BME280;18039;52.188;21.024;2023-02-03T00:25:35;78117.63;;;-141.45;96.92
31403;BME280;18039;52.188;21.024;2023-02-03T00:28:03;78125.72;;;-141.45;97.05
31403;BME280;18039;52.188;21.024;2023-02-03T00:30:34;78137.91;;;-141.45;96.86
31403;BME280;18039;52.188;21.024;2023-02-03T00:33:03;78146.00;;;-141.45;97.16
31403;BME280;18039;52.188;21.024;2023-02-03T00:35:30;78133.84;;;-141.45;97.84
31403;BME280;18039;52.188;21.024;2023-02-03T00:37:57;78135.88;;;-141.45;97.15
31403;BME280;18039;52.188;21.024;2023-02-03T00:40:25;78150.06;;;-141.45;96.97
31403;BME280;18039;52.188;21.024;2023-02-03T00:42:53;78150.06;;;-141.45;97.08
31403;BME280;18039;52.188;21.024;2023-02-03T00:45:20;78150.06;;;-141.45;96.92
31403;BME280;18039;52.188;21.024;2023-02-03T00:47:49;78154.13;;;-141.45;96.97
31403;BME280;18039;52.188;21.024;2023-02-03T00:50:16;78162.22;;;-141.45;97.54
31403;BME280;18039;52.188;21.024;2023-02-03T00:52:43;78166.28;;;-141.45;97.53
31403;BME280;18039;52.188;21.024;2023-02-03T00:55:10;78178.44;;;-141.45;97.72
31403;BME280;18039;52.188;21.024;2023-02-03T00:57:37;78190.63;;;-141.45;97.57
31403;BME280;18039;52.188;21.024;2023-02-03T01:00:05;78190.63;;;-141.45;97.49
31403;BME280;18039;52.188;21.024;2023-02-03T01:02:34;78194.69;;;-141.45;97.51
31403;BME280;18039;52.188;21.024;2023-02-03T01:05:02;78198.72;;;-141.45;97.69
31403;BME280;18039;52.188;21.024;2023-02-03T01:07:32;78202.78;;;-141.45;97.16
31403;BME280;18039;52.188;21.024;2023-02-03T01:09:59;78202.78;;;-141.45;96.81
31403;BME280;18039;52.188;21.024;2023-02-03T01:12:31;78202.78;;;-141.45;96.92
31403;BME280;18039;52.188;21.024;2023-02-03T01:14:58;78206.84;;;-141.45;96.72
31403;BME280;18039;52.188;21.024;2023-02-03T01:17:26;78202.78;;;-141.45;96.45
31403;BME280;18039;52.188;21.024;2023-02-03T01:19:53;78206.84;;;-141.45;96.65
31403;BME280;18039;52.188;21.024;2023-02-03T01:22:20;78210.91;;;-141.45;96.91
31403;BME280;18039;52.188;21.024;2023-02-03T01:24:48;78196.72;;;-141.45;96.00
31403;BME280;18039;52.188;21.024;2023-02-03T01:27:15;78178.44;;;-141.45;96.42
31403;BME280;18039;52.188;21.024;2023-02-03T01:29:42;78180.47;;;-141.45;96.36
31403;BME280;18039;52.188;21.024;2023-02-03T01:32:10;78178.44;;;-141.45;96.32
31403;BME280;18039;52.188;21.024;2023-02-03T01:34:37;78170.34;;;-141.45;95.90
31403;BME280;18039;52.188;21.024;2023-02-03T01:37:05;78182.50;;;-141.45;95.79
31403;BME280;18039;52.188;21.024;2023-02-03T01:39:32;78170.34;;;-141.45;95.77
31403;BME280;18039;52.188;21.024;2023-02-03T01:41:59;78162.22;;;-141.45;95.03
31403;BME280;18039;52.188;21.024;2023-02-03T01:44:47;78158.16;;;-141.45;94.26
31403;BME280;18039;52.188;21.024;2023-02-03T01:47:23;78154.13;;;-141.45;93.90
31403;BME280;18039;52.188;21.024;2023-02-03T01:50:02;78154.13;;;-141.45;94.82
31403;BME280;18039;52.188;21.024;2023-02-03T01:52:31;78150.06;;;-141.45;94.36
31403;BME280;18039;52.188;21.024;2023-02-03T01:55:01;78141.94;;;-141.45;93.79
31403;BME280;18039;52.188;21.024;2023-02-03T01:57:35;78150.06;;;-141.45;93.84
31403;BME280;18039;52.188;21.024;2023-02-03T02:00:05;78141.94;;;-141.45;92.28
31403;BME280;18039;52.188;21.024;2023-02-03T02:02:43;78158.16;;;-141.45;91.93
31403;BME280;18039;52.188;21.024;2023-02-03T02:05:19;78158.16;;;-141.45;91.13
31403;BME280;18039;52.188;21.024;2023-02-03T02:07:49;78162.22;;;-141.45;91.63
31403;BME280;18039;52.188;21.024;2023-02-03T02:10:17;78170.34;;;-141.45;89.76
31403;BME280;18039;52.188;21.024;2023-02-03T02:12:44;78172.38;;;-141.45;87.75
31403;BME280;18039;52.188;21.024;2023-02-03T02:15:12;78178.44;;;-141.45;87.30
31403;BME280;18039;52.188;21.024;2023-02-03T02:17:46;78182.50;;;-141.45;86.66
31403;BME280;18039;52.188;21.024;2023-02-03T02:23:15;78182.50;;;-141.45;85.82
31403;BME280;18039;52.188;21.024;2023-02-03T02:26:12;78178.44;;;-141.45;85.83
31403;BME280;18039;52.188;21.024;2023-02-03T02:39:12;78174.41;;;-141.45;87.30
31403;BME280;18039;52.188;21.024;2023-02-03T02:42:09;78166.28;;;-141.45;87.35
31403;BME280;18039;52.188;21.024;2023-02-03T02:44:51;78162.22;;;-141.45;85.81
31403;BME280;18039;52.188;21.024;2023-02-03T02:47:21;78154.13;;;-141.45;85.12
31403;BME280;18039;52.188;21.024;2023-02-03T02:50:05;78154.13;;;-141.45;84.70
31403;BME280;18039;52.188;21.024;2023-02-03T02:52:35;78168.31;;;-141.45;85.67
31403;BME280;18039;52.188;21.024;2023-02-03T02:55:11;78178.44;;;-141.45;86.41
31403;BME280;18039;52.188;21.024;2023-02-03T02:57:41;78186.56;;;-141.45;86.70
31403;BME280;18039;52.188;21.024;2023-02-03T03:00:11;78176.44;;;-141.45;87.09
31403;BME280;18039;52.188;21.024;2023-02-03T03:02:38;78184.53;;;-141.45;87.78
31403;BME280;18039;52.188;21.024;2023-02-03T03:05:08;78182.50;;;-141.45;88.78
31403;BME280;18039;52.188;21.024;2023-02-03T03:07:54;78186.56;;;-141.45;89.57
31403;BME280;18039;52.188;21.024;2023-02-03T03:10:25;78206.84;;;-141.45;90.25
31403;BME280;18039;52.188;21.024;2023-02-03T03:12:59;78202.78;;;-141.45;90.53
31403;BME280;18039;52.188;21.024;2023-02-03T03:15:30;78206.84;;;-141.45;91.02
31403;BME280;18039;52.188;21.024;2023-02-03T03:18:51;78210.91;;;-141.45;90.94
31403;BME280;18039;52.188;21.024;2023-02-03T03:21:00;78223.06;;;-141.45;91.49
31403;BME280;18039;52.188;21.024;2023-02-03T03:23:35;78223.06;;;-141.45;92.20
31403;BME280;18039;52.188;21.024;2023-02-03T03:26:20;78235.25;;;-141.45;92.51
31403;BME280;18039;52.188;21.024;2023-02-03T03:28:52;78247.41;;;-141.45;93.02
31403;BME280;18039;52.188;21.024;2023-02-03T03:31:20;78251.47;;;-141.45;93.45
31403;BME280;18039;52.188;21.024;2023-02-03T03:33:47;78255.53;;;-141.45;93.59
31403;BME280;18039;52.188;21.024;2023-02-03T03:36:23;78251.47;;;-141.45;93.81
31403;BME280;18039;52.188;21.024;2023-02-03T03:39:01;78255.53;;;-141.45;93.92
31403;BME280;18039;52.188;21.024;2023-02-03T03:41:51;78247.41;;;-141.45;93.92
31403;BME280;18039;52.188;21.024;2023-02-03T03:44:26;78283.91;;;-141.45;94.16
31403;BME280;18039;52.188;21.024;2023-02-03T03:47:09;78241.31;;;-141.45;93.76
31403;BME280;18039;52.188;21.024;2023-02-03T03:49:40;78251.47;;;-141.45;93.70
31403;BME280;18039;52.188;21.024;2023-02-03T03:52:12;78255.53;;;-141.45;93.94
31403;BME280;18039;52.188;21.024;2023-02-03T03:54:41;78265.66;;;-141.45;94.16
31403;BME280;18039;52.188;21.024;2023-02-03T03:57:13;78271.75;;;-141.45;94.44
31403;BME280;18039;52.188;21.024;2023-02-03T03:59:46;78279.84;;;-141.45;94.71
31403;BME280;18039;52.188;21.024;2023-02-03T04:02:16;78283.91;;;-141.45;94.76
31403;BME280;18039;52.188;21.024;2023-02-03T04:04:45;78283.91;;;-141.45;94.75
31403;BME280;18039;52.188;21.024;2023-02-03T04:07:14;78287.97;;;-141.45;95.47
31403;BME280;18039;52.188;21.024;2023-02-03T04:09:41;78287.97;;;-141.45;95.51
31403;BME280;18039;52.188;21.024;2023-02-03T04:12:22;78287.97;;;-141.45;95.78
31403;BME280;18039;52.188;21.024;2023-02-03T04:14:49;78285.94;;;-141.45;95.83
31403;BME280;18039;52.188;21.024;2023-02-03T04:17:16;78283.91;;;-141.45;95.89
31403;BME280;18039;52.188;21.024;2023-02-03T04:19:47;78271.75;;;-141.45;95.37
31403;BME280;18039;52.188;21.024;2023-02-03T04:22:14;78287.97;;;-141.45;94.83
31403;BME280;18039;52.188;21.024;2023-02-03T04:24:41;78296.09;;;-141.45;95.18
31403;BME280;18039;52.188;21.024;2023-02-03T04:27:09;78296.09;;;-141.45;95.37
31403;BME280;18039;52.188;21.024;2023-02-03T04:29:36;78298.09;;;-141.45;95.52
31403;BME280;18039;52.188;21.024;2023-02-03T04:32:04;78304.19;;;-141.45;95.50
31403;BME280;18039;52.188;21.024;2023-02-03T04:34:31;78310.28;;;-141.45;95.55
31403;BME280;18039;52.188;21.024;2023-02-03T04:36:58;78310.28;;;-141.45;95.58
31403;BME280;18039;52.188;21.024;2023-02-03T04:39:25;78310.28;;;-141.45;95.41
31403;BME280;18039;52.188;21.024;2023-02-03T04:41:52;78316.34;;;-141.45;95.38
31403;BME280;18039;52.188;21.024;2023-02-03T04:44:19;78328.53;;;-141.45;95.70
31403;BME280;18039;52.188;21.024;2023-02-03T04:46:46;78316.34;;;-141.45;95.47
31403;BME280;18039;52.188;21.024;2023-02-03T04:49:13;78314.34;;;-141.45;94.82
31403;BME280;18039;52.188;21.024;2023-02-03T04:51:41;78320.41;;;-141.45;94.87
31403;BME280;18039;52.188;21.024;2023-02-03T04:54:10;78312.31;;;-141.45;94.88
31403;BME280;18039;52.188;21.024;2023-02-03T04:56:38;78312.31;;;-141.45;94.77
31403;BME280;18039;52.188;21.024;2023-02-03T04:59:04;78310.28;;;-141.45;94.53
31403;BME280;18039;52.188;21.024;2023-02-03T05:01:32;78314.34;;;-141.45;94.79
31403;BME280;18039;52.188;21.024;2023-02-03T05:03:59;78324.47;;;-141.45;95.05
31403;BME280;18039;52.188;21.024;2023-02-03T05:06:27;78316.34;;;-141.45;95.41
31403;BME280;18039;52.188;21.024;2023-02-03T05:08:55;78304.19;;;-141.45;95.88
31403;BME280;18039;52.188;21.024;2023-02-03T05:11:22;78308.25;;;-141.45;95.94
31403;BME280;18039;52.188;21.024;2023-02-03T05:13:49;78312.31;;;-141.45;96.23
31403;BME280;18039;52.188;21.024;2023-02-03T05:16:17;78304.19;;;-141.45;96.70
31403;BME280;18039;52.188;21.024;2023-02-03T05:18:44;78316.34;;;-141.45;96.84
31403;BME280;18039;52.188;21.024;2023-02-03T05:21:12;78308.25;;;-141.45;96.98
31403;BME280;18039;52.188;21.024;2023-02-03T05:23:38;78312.31;;;-141.45;97.03
31403;BME280;18039;52.188;21.024;2023-02-03T05:26:06;78316.34;;;-141.45;97.00
31403;BME280;18039;52.188;21.024;2023-02-03T05:28:33;78316.34;;;-141.45;97.72
31403;BME280;18039;52.188;21.024;2023-02-03T05:31:01;78312.31;;;-141.45;98.00
31403;BME280;18039;52.188;21.024;2023-02-03T05:33:29;78312.31;;;-141.45;97.92
31403;BME280;18039;52.188;21.024;2023-02-03T05:35:56;78304.19;;;-141.45;98.27
31403;BME280;18039;52.188;21.024;2023-02-03T05:38:23;78312.31;;;-141.45;98.46
31403;BME280;18039;52.188;21.024;2023-02-03T05:40:53;78300.13;;;-141.45;98.69
31403;BME280;18039;52.188;21.024;2023-02-03T05:43:39;78304.19;;;-141.45;98.38
31403;BME280;18039;52.188;21.024;2023-02-03T05:46:06;78292.03;;;-141.45;98.68
31403;BME280;18039;52.188;21.024;2023-02-03T05:48:33;78292.03;;;-141.45;98.68
31403;BME280;18039;52.188;21.024;2023-02-03T05:51:01;78296.09;;;-141.45;98.82
31403;BME280;18039;52.188;21.024;2023-02-03T05:53:28;78296.09;;;-141.45;98.87
31403;BME280;18039;52.188;21.024;2023-02-03T05:55:55;78300.13;;;-141.45;98.90
31403;BME280;18039;52.188;21.024;2023-02-03T05:58:22;78308.25;;;-141.45;99.06
31403;BME280;18039;52.188;21.024;2023-02-03T06:00:50;78302.16;;;-141.45;99.05
31403;BME280;18039;52.188;21.024;2023-02-03T06:03:18;78292.03;;;-141.45;99.30
31403;BME280;18039;52.188;21.024;2023-02-03T06:05:46;78300.13;;;-141.45;99.36
31403;BME280;18039;52.188;21.024;2023-02-03T06:08:13;78300.13;;;-141.45;99.50
31403;BME280;18039;52.188;21.024;2023-02-03T06:10:40;78296.09;;;-141.45;99.57
31403;BME280;18039;52.188;21.024;2023-02-03T06:13:11;78292.03;;;-141.45;99.79
31403;BME280;18039;52.188;21.024;2023-02-03T06:15:39;78292.03;;;-141.45;99.71
31403;BME280;18039;52.188;21.024;2023-02-03T06:18:07;78306.22;;;-141.45;99.88
31403;BME280;18039;52.188;21.024;2023-02-03T06:20:34;78287.97;;;-141.45;99.83
31403;BME280;18039;52.188;21.024;2023-02-03T06:23:02;78279.84;;;-141.45;99.97
31403;BME280;18039;52.188;21.024;2023-02-03T06:25:30;78267.69;;;-141.45;99.82
31403;BME280;18039;52.188;21.024;2023-02-03T06:27:58;78267.69;;;-141.45;100.00
31403;BME280;18039;52.188;21.024;2023-02-03T06:30:26;78259.56;;;-141.45;99.94
31403;BME280;18039;52.188;21.024;2023-02-03T06:32:53;78263.63;;;-141.45;99.90
31403;BME280;18039;52.188;21.024;2023-02-03T06:35:21;78255.53;;;-141.45;99.85
31403;BME280;18039;52.188;21.024;2023-02-03T06:37:48;78255.53;;;-141.45;99.44
31403;BME280;18039;52.188;21.024;2023-02-03T06:40:15;78247.41;;;-141.45;99.36
31403;BME280;18039;52.188;21.024;2023-02-03T06:42:46;78245.38;;;-141.45;99.44
31403;BME280;18039;52.188;21.024;2023-02-03T06:45:14;78239.28;;;-141.45;99.37
31403;BME280;18039;52.188;21.024;2023-02-03T06:47:42;78233.22;;;-141.45;99.10
31403;BME280;18039;52.188;21.024;2023-02-03T06:50:13;78219.00;;;-141.45;98.97
31403;BME280;18039;52.188;21.024;2023-02-03T06:52:41;78206.84;;;-141.45;98.54
31403;BME280;18039;52.188;21.024;2023-02-03T06:55:08;78206.84;;;-141.45;98.64
31403;BME280;18039;52.188;21.024;2023-02-03T06:57:42;78206.84;;;-141.45;98.65
31403;BME280;18039;52.188;21.024;2023-02-03T07:00:10;78194.69;;;-141.45;98.69
31403;BME280;18039;52.188;21.024;2023-02-03T07:02:42;78196.72;;;-141.45;98.98
31403;BME280;18039;52.188;21.024;2023-02-03T07:05:09;78200.75;;;-141.45;99.20
31403;BME280;18039;52.188;21.024;2023-02-03T07:07:36;78174.41;;;-141.45;99.12
31403;BME280;18039;52.188;21.024;2023-02-03T07:10:06;78156.16;;;-141.45;99.33
31403;BME280;18039;52.188;21.024;2023-02-03T07:12:33;78150.06;;;-141.45;99.37
31403;BME280;18039;52.188;21.024;2023-02-03T07:15:03;78137.91;;;-141.45;98.92
31403;BME280;18039;52.188;21.024;2023-02-03T07:17:30;78125.72;;;-141.45;98.85
31403;BME280;18039;52.188;21.024;2023-02-03T07:19:58;78109.50;;;-141.45;99.05
31403;BME280;18039;52.188;21.024;2023-02-03T07:22:25;78097.34;;;-141.45;98.90
31403;BME280;18039;52.188;21.024;2023-02-03T07:24:53;78083.13;;;-141.45;98.27
31403;BME280;18039;52.188;21.024;2023-02-03T07:27:20;78068.94;;;-141.45;98.48
31403;BME280;18039;52.188;21.024;2023-02-03T07:29:47;78064.88;;;-141.45;98.66
31403;BME280;18039;52.188;21.024;2023-02-03T07:32:14;78052.72;;;-141.45;97.98
31403;BME280;18039;52.188;21.024;2023-02-03T07:34:42;78044.59;;;-141.45;97.74
31403;BME280;18039;52.188;21.024;2023-02-03T07:37:08;78034.47;;;-141.45;97.51
31403;BME280;18039;52.188;21.024;2023-02-03T07:39:36;78020.28;;;-141.45;97.11
31403;BME280;18039;52.188;21.024;2023-02-03T07:42:03;78008.09;;;-141.45;96.91
31403;BME280;18039;52.188;21.024;2023-02-03T07:44:35;77991.88;;;-141.45;96.96
31403;BME280;18039;52.188;21.024;2023-02-03T07:47:02;77987.81;;;-141.45;95.38
31403;BME280;18039;52.188;21.024;2023-02-03T07:49:29;77979.72;;;-141.45;95.17
31403;BME280;18039;52.188;21.024;2023-02-03T07:51:56;77975.66;;;-141.45;94.71
31403;BME280;18039;52.188;21.024;2023-02-03T07:54:23;77955.38;;;-141.45;94.70
31403;BME280;18039;52.188;21.024;2023-02-03T07:56:50;77939.16;;;-141.45;94.80
31403;BME280;18039;52.188;21.024;2023-02-03T07:59:18;77931.03;;;-141.45;94.11
31403;BME280;18039;52.188;21.024;2023-02-03T08:01:45;77935.09;;;-141.45;93.69
31403;BME280;18039;52.188;21.024;2023-02-03T08:04:12;77931.03;;;-141.45;93.05
31403;BME280;18039;52.188;21.024;2023-02-03T08:06:42;77922.94;;;-141.45;92.93
31403;BME280;18039;52.188;21.024;2023-02-03T08:09:10;77916.84;;;-141.45;92.99
31403;BME280;18039;52.188;21.024;2023-02-03T08:11:37;77906.72;;;-141.45;92.71
31403;BME280;18039;52.188;21.024;2023-02-03T08:14:04;77894.53;;;-141.45;92.44
31403;BME280;18039;52.188;21.024;2023-02-03T08:16:31;77886.44;;;-141.45;92.17
31403;BME280;18039;52.188;21.024;2023-02-03T08:18:58;77890.47;;;-141.45;91.63
31403;BME280;18039;52.188;21.024;2023-02-03T08:21:25;77882.38;;;-141.45;91.46
31403;BME280;18039;52.188;21.024;2023-02-03T08:23:53;77878.31;;;-141.45;90.45
31403;BME280;18039;52.188;21.024;2023-02-03T08:26:21;77870.22;;;-141.45;90.43
31403;BME280;18039;52.188;21.024;2023-02-03T08:28:49;77858.03;;;-141.45;90.42
31403;BME280;18039;52.188;21.024;2023-02-03T08:31:16;77841.81;;;-141.45;90.20
31403;BME280;18039;52.188;21.024;2023-02-03T08:33:43;77825.59;;;-141.45;90.15
31403;BME280;18039;52.188;21.024;2023-02-03T08:36:11;77813.44;;;-141.45;89.84
31403;BME280;18039;52.188;21.024;2023-02-03T08:38:39;77801.25;;;-141.45;89.65
31403;BME280;18039;52.188;21.024;2023-02-03T08:41:12;77776.94;;;-141.45;89.33
31403;BME280;18039;52.188;21.024;2023-02-03T08:43:40;77768.81;;;-141.45;88.90
31403;BME280;18039;52.188;21.024;2023-02-03T08:46:09;77776.94;;;-141.45;88.48
31403;BME280;18039;52.188;21.024;2023-02-03T08:48:37;77764.75;;;-141.45;86.27
31403;BME280;18039;52.188;21.024;2023-02-03T08:51:12;77752.59;;;-141.45;86.87
31403;BME280;18039;52.188;21.024;2023-02-03T08:53:40;77748.53;;;-141.45;86.27
31403;BME280;18039;52.188;21.024;2023-02-03T08:56:09;77744.47;;;-141.45;85.50
31403;BME280;18039;52.188;21.024;2023-02-03T08:58:37;77742.44;;;-141.45;84.44
31403;BME280;18039;52.188;21.024;2023-02-03T09:01:14;77734.34;;;-141.45;84.75
31403;BME280;18039;52.188;21.024;2023-02-03T09:03:42;77720.16;;;-141.45;84.79
31403;BME280;18039;52.188;21.024;2023-02-03T09:06:09;77703.94;;;-141.45;85.10
31403;BME280;18039;52.188;21.024;2023-02-03T09:08:39;77691.75;;;-141.45;83.65
31403;BME280;18039;52.188;21.024;2023-02-03T09:11:10;77693.78;;;-141.45;83.29
31403;BME280;18039;52.188;21.024;2023-02-03T09:13:38;77691.75;;;-141.45;82.15
31403;BME280;18039;52.188;21.024;2023-02-03T09:16:06;77675.53;;;-141.45;83.22
31403;BME280;18039;52.188;21.024;2023-02-03T09:18:34;77659.31;;;-141.45;82.37
31403;BME280;18039;52.188;21.024;2023-02-03T09:21:04;77649.19;;;-141.45;81.90
31403;BME280;18039;52.188;21.024;2023-02-03T09:23:32;77632.94;;;-141.45;81.73
31403;BME280;18039;52.188;21.024;2023-02-03T09:26:04;77618.75;;;-141.45;81.61
31403;BME280;18039;52.188;21.024;2023-02-03T09:28:32;77622.81;;;-141.45;79.79
31403;BME280;18039;52.188;21.024;2023-02-03T09:33:28;77600.50;;;-141.45;79.31
31403;BME280;18039;52.188;21.024;2023-02-03T09:35:56;77602.53;;;-141.45;77.45
31403;BME280;18039;52.188;21.024;2023-02-03T09:38:24;77602.53;;;-141.45;77.76
31403;BME280;18039;52.188;21.024;2023-02-03T09:41:09;77606.59;;;-141.45;77.44
31403;BME280;18039;52.188;21.024;2023-02-03T09:43:52;77596.44;;;-141.45;77.55
31403;BME280;18039;52.188;21.024;2023-02-03T09:46:26;77602.53;;;-141.45;76.06
31403;BME280;18039;52.188;21.024;2023-02-03T09:48:55;77588.34;;;-141.45;75.98
31403;BME280;18039;52.188;21.024;2023-02-03T09:51:32;77586.31;;;-141.45;74.49
31403;BME280;18039;52.188;21.024;2023-02-03T09:54:20;77580.22;;;-141.45;75.67
31403;BME280;18039;52.188;21.024;2023-02-03T09:56:52;77584.28;;;-141.45;75.09
31403;BME280;18039;52.188;21.024;2023-02-03T09:59:21;77561.97;;;-141.45;72.94
31403;BME280;18039;52.188;21.024;2023-02-03T10:04:57;77553.88;;;-141.45;72.69
31403;BME280;18039;52.188;21.024;2023-02-03T10:13:04;77517.38;;;-141.45;72.79
31403;BME280;18039;52.188;21.024;2023-02-03T10:15:56;77497.09;;;-141.45;72.24
31403;BME280;18039;52.188;21.024;2023-02-03T10:18:29;77480.88;;;-141.45;71.78
31403;BME280;18039;52.188;21.024;2023-02-03T10:21:03;77456.53;;;-141.45;70.62
31403;BME280;18039;52.188;21.024;2023-02-03T10:23:39;77456.53;;;-141.45;69.61
31403;BME280;18039;52.188;21.024;2023-02-03T10:26:11;77428.16;;;-141.45;68.52
31403;BME280;18039;52.188;21.024;2023-02-03T10:28:50;77424.09;;;-141.45;68.21
31403;BME280;18039;52.188;21.024;2023-02-03T10:31:24;77407.88;;;-141.45;70.07
31403;BME280;18039;52.188;21.024;2023-02-03T10:34:14;77399.78;;;-141.45;68.04
31403;BME280;18039;52.188;21.024;2023-02-03T10:36:56;77383.56;;;-141.45;68.02
31403;BME280;18039;52.188;21.024;2023-02-03T10:39:30;77375.44;;;-141.45;68.91
31403;BME280;18039;52.188;21.024;2023-02-03T10:42:00;77375.44;;;-141.45;68.72
31403;BME280;18039;52.188;21.024;2023-02-03T10:44:36;77367.34;;;-141.45;69.17
31403;BME280;18039;52.188;21.024;2023-02-03T10:47:16;77351.13;;;-141.45;68.90
31403;BME280;18039;52.188;21.024;2023-02-03T10:49:46;77343.00;;;-141.45;68.66
31403;BME280;18039;52.188;21.024;2023-02-03T10:52:28;77334.91;;;-141.45;67.84
31403;BME280;18039;52.188;21.024;2023-02-03T10:54:55;77330.84;;;-141.45;67.42
31403;BME280;18039;52.188;21.024;2023-02-03T10:57:27;77322.72;;;-141.45;67.84
31403;BME280;18039;52.188;21.024;2023-02-03T11:00:07;77310.56;;;-141.45;66.71
31403;BME280;18039;52.188;21.024;2023-02-03T11:03:07;77314.63;;;-141.45;67.64
31403;BME280;18039;52.188;21.024;2023-02-03T11:05:42;77302.44;;;-141.45;67.56
31403;BME280;18039;52.188;21.024;2023-02-03T11:08:16;77286.22;;;-141.45;68.03
31403;BME280;18039;52.188;21.024;2023-02-03T11:10:43;77292.31;;;-141.45;66.60
31403;BME280;18039;52.188;21.024;2023-02-03T11:13:20;77306.50;;;-141.45;67.80
31403;BME280;18039;52.188;21.024;2023-02-03T11:16:17;77298.41;;;-141.45;67.92
31403;BME280;18039;52.188;21.024;2023-02-03T11:18:52;77302.44;;;-141.45;67.61
31403;BME280;18039;52.188;21.024;2023-02-03T11:21:21;77294.34;;;-141.45;68.21
31403;BME280;18039;52.188;21.024;2023-02-03T11:23:53;77282.19;;;-141.45;68.76
31403;BME280;18039;52.188;21.024;2023-02-03T11:26:27;77270.00;;;-141.45;68.01
31403;BME280;18039;52.188;21.024;2023-02-03T11:28:57;77282.19;;;-141.45;68.07
31403;BME280;18039;52.188;21.024;2023-02-03T11:31:35;77278.13;;;-141.45;67.81
31403;BME280;18039;52.188;21.024;2023-02-03T11:34:06;77265.97;;;-141.45;68.08
31403;BME280;18039;52.188;21.024;2023-02-03T11:36:42;77261.91;;;-141.45;67.99
31403;BME280;18039;52.188;21.024;2023-02-03T11:39:18;77265.97;;;-141.45;69.03
31403;BME280;18039;52.188;21.024;2023-02-03T11:41:46;77259.88;;;-141.45;68.54
31403;BME280;18039;52.188;21.024;2023-02-03T11:44:20;77292.31;;;-141.45;68.67
31403;BME280;18039;52.188;21.024;2023-02-03T11:47:08;77245.69;;;-141.45;68.77
31403;BME280;18039;52.188;21.024;2023-02-03T11:49:58;77249.75;;;-141.45;68.96
31403;BME280;18039;52.188;21.024;2023-02-03T11:52:44;77261.91;;;-141.45;68.78
31403;BME280;18039;52.188;21.024;2023-02-03T12:04:02;77209.19;;;-141.45;69.30
31403;BME280;18039;52.188;21.024;2023-02-03T12:09:22;77188.91;;;-141.45;68.15
31403;BME280;18039;52.188;21.024;2023-02-03T12:14:48;77176.75;;;-141.45;67.36
31403;BME280;18039;52.188;21.024;2023-02-03T12:17:31;77168.63;;;-141.45;67.09
31403;BME280;18039;52.188;21.024;2023-02-03T12:30:48;77156.47;;;-141.45;66.52
31403;BME280;18039;52.188;21.024;2023-02-03T12:33:30;77160.53;;;-141.45;67.47
31403;BME280;18039;52.188;21.024;2023-02-03T12:36:07;77172.69;;;-141.45;67.45
31403;BME280;18039;52.188;21.024;2023-02-03T12:38:43;77176.75;;;-141.45;66.39
31403;BME280;18039;52.188;21.024;2023-02-03T12:41:20;77188.91;;;-141.45;66.69
31403;BME280;18039;52.188;21.024;2023-02-03T12:43:52;77192.97;;;-141.45;67.12
31403;BME280;18039;52.188;21.024;2023-02-03T12:46:29;77180.81;;;-141.45;67.75
31403;BME280;18039;52.188;21.024;2023-02-03T12:49:25;77164.59;;;-141.45;67.51
31403;BME280;18039;52.188;21.024;2023-02-03T12:51:59;77156.47;;;-141.45;67.46
31403;BME280;18039;52.188;21.024;2023-02-03T12:54:40;77144.31;;;-141.45;68.06
31403;BME280;18039;52.188;21.024;2023-02-03T12:57:22;77152.41;;;-141.45;68.02
31403;BME280;18039;52.188;21.024;2023-02-03T13:02:54;77138.22;;;-141.45;67.90
31403;BME280;18039;52.188;21.024;2023-02-03T13:05:29;77142.28;;;-141.45;68.60
31403;BME280;18039;52.188;21.024;2023-02-03T13:08:05;77138.22;;;-141.45;69.23
31403;BME280;18039;52.188;21.024;2023-02-03T13:10:50;77152.41;;;-141.45;69.81
31403;BME280;18039;52.188;21.024;2023-02-03T13:13:28;77140.25;;;-141.45;70.62
31403;BME280;18039;52.188;21.024;2023-02-03T13:16:01;77138.22;;;-141.45;71.52
31403;BME280;18039;52.188;21.024;2023-02-03T13:18:38;77132.16;;;-141.45;71.74
31403;BME280;18039;52.188;21.024;2023-02-03T13:21:10;77142.28;;;-141.45;71.99
31403;BME280;18039;52.188;21.024;2023-02-03T13:23:41;77136.19;;;-141.45;73.64
31403;BME280;18039;52.188;21.024;2023-02-03T13:29:02;77136.19;;;-141.45;75.03
31403;BME280;18039;52.188;21.024;2023-02-03T13:42:31;77140.25;;;-141.45;81.38
31403;BME280;18039;52.188;21.024;2023-02-03T13:47:52;77164.59;;;-141.45;84.94
31403;BME280;18039;52.188;21.024;2023-02-03T13:50:26;77172.69;;;-141.45;85.94
31403;BME280;18039;52.188;21.024;2023-02-03T13:53:00;77199.06;;;-141.45;87.32
31403;BME280;18039;52.188;21.024;2023-02-03T13:55:33;77190.94;;;-141.45;88.63
31403;BME280;18039;52.188;21.024;2023-02-03T13:58:02;77195.00;;;-141.45;90.19
31403;BME280;18039;52.188;21.024;2023-02-03T14:03:20;77205.13;;;-141.45;91.66